createdAt,value
2019-04-04T00:02:08.411Z,4.70
2019-04-04T00:04:38.949Z,4.60
2019-04-04T00:07:09.429Z,4.90
2019-04-04T00:09:39.961Z,4.40
2019-04-04T00:12:11.404Z,3.93
2019-04-04T00:14:43.491Z,3.63
2019-04-04T00:17:14.084Z,5.27
2019-04-04T00:19:44.923Z,5.00
2019-04-04T00:22:15.707Z,4.90
2019-04-04T00:24:46.656Z,4.00
2019-04-04T00:27:17.133Z,4.70
2019-04-04T00:29:48.506Z,4.87
2019-04-04T00:32:21.065Z,5.37
2019-04-04T00:34:52.892Z,6.87
2019-04-04T00:37:23.517Z,6.97
2019-04-04T00:39:54.196Z,6.07
2019-04-04T00:42:24.783Z,6.63
2019-04-04T00:44:55.806Z,7.00
2019-04-04T00:47:27.014Z,6.13
2019-04-04T00:49:57.889Z,6.63
2019-04-04T00:52:28.443Z,7.10
2019-04-04T00:55:00.072Z,6.70
2019-04-04T00:57:32.437Z,7.90
2019-04-04T01:00:03.247Z,7.53
2019-04-04T01:02:33.748Z,7.80
2019-04-04T01:05:04.316Z,5.90
2019-04-04T01:07:35.803Z,7.30
2019-04-04T01:10:07.454Z,7.77
2019-04-04T01:12:37.935Z,7.67
2019-04-04T01:15:09.605Z,8.60
2019-04-04T01:17:40.101Z,7.50
2019-04-04T01:20:11.087Z,7.23
2019-04-04T01:22:41.881Z,7.37
2019-04-04T01:25:12.840Z,9.93
2019-04-04T01:27:43.312Z,6.60
2019-04-04T01:30:14.163Z,8.60
2019-04-04T01:32:46.273Z,8.10
2019-04-04T01:35:16.802Z,8.43
2019-04-04T01:37:47.259Z,8.57
2019-04-04T01:40:17.711Z,7.30
2019-04-04T01:42:48.496Z,7.43
2019-04-04T01:45:19.820Z,11.47
2019-04-04T01:47:50.286Z,8.93
2019-04-04T01:50:22.465Z,8.17
2019-04-04T01:52:53.957Z,8.53
2019-04-04T01:55:24.424Z,7.57
2019-04-04T01:57:54.847Z,7.53
2019-04-04T02:00:25.267Z,9.80
2019-04-04T02:02:55.902Z,7.07
2019-04-04T02:05:26.977Z,7.87
2019-04-04T02:07:58.871Z,7.70
2019-04-04T02:10:30.446Z,8.90
2019-04-04T02:13:00.865Z,8.27
2019-04-04T02:15:31.287Z,8.63
2019-04-04T02:18:01.750Z,8.50
2019-04-04T02:20:32.559Z,8.60
2019-04-04T02:23:02.968Z,9.33
2019-04-04T02:25:34.083Z,9.27
2019-04-04T02:28:06.931Z,9.20
2019-04-04T02:30:37.371Z,12.23
2019-04-04T02:33:07.829Z,10.00
2019-04-04T02:35:38.265Z,12.73
2019-04-04T02:38:09.967Z,8.70
2019-04-04T02:40:41.996Z,9.30
2019-04-04T02:43:13.121Z,10.23
2019-04-04T02:45:43.921Z,8.57
2019-04-04T02:48:14.401Z,10.17
2019-04-04T02:50:45.719Z,8.40
2019-04-04T02:53:19.362Z,7.97
2019-04-04T02:55:48.340Z,8.90
2019-04-04T02:58:18.771Z,8.20
2019-04-04T03:00:49.561Z,8.20
2019-04-04T03:03:19.976Z,9.43
2019-04-04T03:05:52.087Z,8.40
2019-04-04T03:08:22.985Z,8.80
2019-04-04T03:10:53.781Z,9.73
2019-04-04T03:13:24.193Z,9.83
2019-04-04T03:15:55.120Z,8.70
2019-04-04T03:18:25.544Z,8.87
2019-04-04T03:20:56.364Z,8.90
2019-04-04T03:23:27.233Z,8.70
2019-04-04T03:25:57.656Z,9.97
2019-04-04T03:28:31.326Z,10.97
2019-04-04T03:31:02.927Z,11.77
2019-04-04T03:33:33.017Z,10.17
2019-04-04T03:36:03.556Z,9.33
2019-04-04T03:38:34.029Z,10.80
2019-04-04T03:41:05.053Z,10.17
2019-04-04T03:43:35.483Z,9.97
2019-04-04T03:46:05.952Z,10.73
2019-04-04T03:48:36.823Z,10.90
2019-04-04T03:51:07.265Z,13.33
2019-04-04T03:53:39.925Z,11.50
2019-04-04T03:56:10.687Z,10.03
2019-04-04T03:58:41.460Z,9.57
2019-04-04T04:01:13.118Z,8.93
2019-04-04T04:03:43.827Z,9.00
2019-04-04T04:06:14.569Z,10.80
2019-04-04T04:08:45.051Z,12.10
2019-04-04T04:11:15.867Z,13.60
2019-04-04T04:13:48.787Z,12.33
2019-04-04T04:16:18.919Z,12.83
2019-04-04T04:18:53.920Z,11.23
2019-04-04T04:21:22.157Z,13.43
2019-04-04T04:23:56.991Z,11.90
2019-04-04T04:26:25.806Z,11.23
2019-04-04T04:28:56.241Z,12.80
2019-04-04T04:31:27.455Z,13.00
2019-04-04T04:34:00.818Z,12.50
2019-04-04T04:36:30.094Z,11.10
2019-04-04T04:39:00.667Z,11.20
2019-04-04T04:41:31.117Z,16.17
2019-04-04T04:44:05.096Z,16.43
2019-04-04T04:46:34.207Z,14.00
2019-04-04T04:49:04.655Z,14.90
2019-04-04T04:51:35.096Z,17.40
2019-04-04T04:54:05.604Z,15.90
2019-04-04T04:56:36.362Z,18.30
2019-04-04T04:59:06.797Z,19.93
2019-04-04T05:01:37.285Z,27.53
2019-04-04T05:04:07.829Z,21.40
2019-04-04T05:06:38.273Z,17.03
2019-04-04T05:09:08.773Z,18.27
2019-04-04T05:11:39.253Z,15.43
2019-04-04T05:14:10.766Z,18.87
2019-04-04T05:16:41.585Z,17.97
2019-04-04T05:19:12.045Z,17.57
2019-04-04T05:21:42.577Z,15.77
2019-04-04T05:24:13.086Z,15.83
2019-04-04T05:26:43.649Z,14.87
2019-04-04T05:29:14.223Z,18.50
2019-04-04T05:31:44.744Z,17.67
2019-04-04T05:34:15.213Z,17.27
2019-04-04T05:36:46.005Z,17.63
2019-04-04T05:39:18.010Z,19.50
2019-04-04T05:41:49.517Z,17.23
2019-04-04T05:44:19.928Z,19.03
2019-04-04T05:46:51.919Z,22.97
2019-04-04T05:49:22.622Z,19.37
2019-04-04T05:51:53.401Z,19.77
2019-04-04T05:54:23.881Z,18.60
2019-04-04T05:56:54.309Z,18.77
2019-04-04T05:59:24.856Z,21.20
2019-04-04T06:01:56.276Z,22.23
2019-04-04T06:04:26.707Z,15.00
2019-04-04T06:06:57.136Z,20.73
2019-04-04T06:09:27.932Z,18.40
2019-04-04T06:11:58.366Z,20.20
2019-04-04T06:14:29.974Z,17.97
2019-04-04T06:17:02.501Z,20.60
2019-04-04T06:19:32.933Z,19.47
2019-04-04T06:22:03.382Z,17.93
2019-04-04T06:24:34.744Z,20.40
2019-04-04T06:27:06.980Z,23.00
2019-04-04T06:29:37.587Z,21.27
2019-04-04T06:32:08.068Z,24.13
2019-04-04T06:34:38.527Z,26.23
2019-04-04T06:37:08.960Z,21.60
2019-04-04T06:39:39.437Z,27.87
2019-04-04T06:42:11.322Z,26.67
2019-04-04T06:44:45.081Z,26.37
2019-04-04T06:47:16.572Z,23.87
2019-04-04T06:49:47.398Z,25.13
2019-04-04T06:52:19.232Z,23.63
2019-04-04T06:54:49.834Z,27.60
2019-04-04T06:57:21.551Z,27.23
2019-04-04T06:59:52.026Z,25.93
2019-04-04T07:02:24.009Z,31.37
2019-04-04T07:04:54.585Z,23.97
2019-04-04T07:07:25.504Z,22.90
2019-04-04T07:09:55.986Z,25.20
2019-04-04T07:12:28.378Z,19.20
2019-04-04T07:14:59.041Z,22.20
2019-04-04T07:17:29.804Z,23.57
2019-04-04T07:20:00.232Z,18.77
2019-04-04T07:22:31.373Z,21.60
2019-04-04T07:25:05.737Z,25.97
2019-04-04T07:27:35.862Z,28.17
2019-04-04T07:30:08.038Z,22.57
2019-04-04T07:32:41.007Z,22.47
2019-04-04T07:35:11.117Z,24.30
2019-04-04T07:37:41.551Z,21.83
2019-04-04T07:40:12.390Z,27.33
2019-04-04T07:42:47.031Z,21.00
2019-04-04T07:45:16.882Z,25.50
2019-04-04T07:47:47.773Z,26.17
2019-04-04T07:50:18.386Z,22.23
2019-04-04T07:52:49.152Z,23.77
2019-04-04T07:55:21.439Z,22.60
2019-04-04T07:57:52.923Z,27.43
2019-04-04T08:00:23.455Z,22.10
2019-04-04T08:02:53.891Z,22.37
2019-04-04T08:05:25.054Z,27.27
2019-04-04T08:07:55.485Z,26.50
2019-04-04T08:10:27.728Z,27.27
2019-04-04T08:13:00.084Z,28.53
2019-04-04T08:15:31.275Z,28.80
2019-04-04T08:18:01.781Z,29.40
2019-04-04T08:20:32.592Z,32.97
2019-04-04T08:23:03.285Z,31.00
2019-04-04T08:25:33.722Z,29.47
2019-04-04T08:28:04.390Z,30.80
2019-04-04T08:30:34.849Z,26.97
2019-04-04T08:33:05.383Z,29.03
2019-04-04T08:35:35.866Z,29.07
2019-04-04T08:38:06.754Z,32.43
2019-04-04T08:40:37.288Z,34.50
2019-04-04T08:43:07.769Z,33.63
2019-04-04T08:45:38.490Z,33.10
2019-04-04T08:48:09.321Z,37.17
2019-04-04T08:50:39.805Z,33.97
2019-04-04T08:53:10.243Z,31.90
2019-04-04T08:55:40.684Z,32.03
2019-04-04T08:58:11.857Z,32.20
2019-04-04T09:00:42.498Z,32.87
2019-04-04T09:03:12.934Z,30.30
2019-04-04T09:05:43.417Z,28.00
2019-04-04T09:08:14.222Z,28.20
2019-04-04T09:10:46.643Z,30.30
2019-04-04T09:13:18.220Z,27.73
2019-04-04T09:15:49.060Z,28.40
2019-04-04T09:18:19.498Z,24.70
2019-04-04T09:20:50.078Z,27.47
2019-04-04T09:23:20.510Z,28.27
2019-04-04T09:25:50.950Z,25.57
2019-04-04T09:28:21.593Z,27.37
2019-04-04T09:30:52.071Z,25.67
2019-04-04T09:33:23.604Z,27.00
2019-04-04T09:35:54.109Z,24.77
2019-04-04T09:38:24.552Z,26.10
2019-04-04T09:40:55.026Z,26.00
2019-04-04T09:43:25.923Z,25.77
2019-04-04T09:45:56.445Z,28.63
2019-04-04T09:48:27.078Z,25.37
2019-04-04T09:50:57.568Z,25.03
2019-04-04T09:53:28.046Z,24.00
2019-04-04T09:55:58.752Z,22.57
2019-04-04T09:58:29.450Z,25.20
2019-04-04T10:01:00.174Z,27.17
2019-04-04T10:03:30.613Z,27.13
2019-04-04T10:06:01.085Z,27.67
2019-04-04T10:08:31.808Z,27.07
2019-04-04T10:11:02.246Z,32.97
2019-04-04T10:13:33.495Z,32.90
2019-04-04T10:16:04.035Z,34.47
2019-04-04T10:18:34.770Z,37.83
2019-04-04T10:21:11.989Z,37.27
2019-04-04T10:23:38.856Z,35.20
2019-04-04T10:26:09.299Z,37.87
2019-04-04T10:28:39.799Z,35.23
2019-04-04T10:31:10.250Z,29.70
2019-04-04T10:33:42.193Z,40.07
2019-04-04T10:36:13.399Z,36.80
2019-04-04T10:38:44.261Z,37.53
2019-04-04T10:41:14.696Z,29.13
2019-04-04T10:43:45.173Z,31.30
2019-04-04T10:46:16.325Z,27.43
2019-04-04T10:48:47.076Z,29.00
2019-04-04T10:51:17.656Z,23.43
2019-04-04T10:53:48.398Z,23.23
2019-04-04T10:56:18.835Z,24.90
2019-04-04T10:58:49.654Z,23.47
2019-04-04T11:01:20.393Z,23.33
2019-04-04T11:03:51.566Z,23.60
2019-04-04T11:06:22.069Z,22.53
2019-04-04T11:08:52.892Z,23.80
2019-04-04T11:11:23.329Z,22.93
2019-04-04T11:13:54.238Z,25.83
2019-04-04T11:16:30.370Z,23.37
2019-04-04T11:18:56.981Z,23.27
2019-04-04T11:21:27.486Z,23.63
2019-04-04T11:23:57.938Z,22.47
2019-04-04T11:26:28.477Z,22.60
2019-04-04T11:28:58.978Z,21.07
2019-04-04T11:31:29.907Z,21.53
2019-04-04T11:34:00.350Z,21.50
2019-04-04T11:36:31.182Z,21.40
2019-04-04T11:39:01.631Z,20.93
2019-04-04T11:41:32.107Z,21.00
2019-04-04T11:44:02.586Z,19.37
2019-04-04T11:46:33.200Z,18.60
2019-04-04T11:49:03.636Z,21.40
2019-04-04T11:51:34.130Z,20.37
2019-04-04T11:54:04.870Z,20.30
2019-04-04T11:56:35.331Z,20.47
2019-04-04T11:59:08.157Z,20.73
2019-04-04T12:01:39.970Z,20.20
2019-04-04T12:04:10.457Z,22.13
2019-04-04T12:06:41.550Z,22.43
2019-04-04T12:09:12.766Z,21.10
2019-04-04T12:11:43.350Z,25.23
2019-04-04T12:14:14.772Z,22.03
2019-04-04T12:16:45.234Z,20.13
2019-04-04T12:19:15.788Z,22.57
2019-04-04T12:21:47.717Z,23.20
2019-04-04T12:24:19.975Z,23.13
2019-04-04T12:26:50.895Z,22.50
2019-04-04T12:29:21.345Z,21.07
2019-04-04T12:31:51.794Z,24.07
2019-04-04T12:34:22.592Z,24.23
2019-04-04T12:36:53.062Z,25.33
2019-04-04T12:39:23.513Z,27.20
2019-04-04T12:41:54.038Z,24.10
2019-04-04T12:44:24.823Z,25.10
2019-04-04T12:46:55.266Z,25.60
2019-04-04T12:49:27.393Z,24.70
2019-04-04T12:51:58.195Z,23.47
2019-04-04T12:54:28.652Z,26.60
2019-04-04T12:56:59.148Z,24.60
2019-04-04T12:59:29.591Z,25.97
2019-04-04T13:02:00.389Z,26.80
2019-04-04T13:04:32.409Z,26.27
2019-04-04T13:07:03.910Z,29.57
2019-04-04T13:09:34.358Z,27.83
2019-04-04T13:12:05.928Z,24.57
2019-04-04T13:14:36.398Z,25.97
2019-04-04T13:17:07.237Z,28.83
2019-04-04T13:19:38.413Z,25.90
2019-04-04T13:22:09.251Z,30.60
2019-04-04T13:24:41.191Z,30.20
2019-04-04T13:27:11.680Z,25.93
2019-04-04T13:29:44.029Z,28.57
2019-04-04T13:32:14.470Z,27.93
2019-04-04T13:34:44.983Z,26.63
2019-04-04T13:37:15.815Z,29.53
2019-04-04T13:39:46.264Z,28.97
2019-04-04T13:42:17.726Z,26.90
2019-04-04T13:44:50.468Z,29.20
2019-04-04T13:47:20.754Z,26.07
2019-04-04T13:49:51.596Z,28.90
2019-04-04T13:52:22.157Z,28.47
2019-04-04T13:54:55.633Z,27.13
2019-04-04T13:57:25.632Z,26.00
2019-04-04T13:59:56.062Z,28.63
2019-04-04T14:02:26.868Z,28.27
2019-04-04T14:05:09.148Z,30.50
2019-04-04T14:07:29.598Z,28.13
2019-04-04T14:10:00.039Z,32.93
2019-04-04T14:12:31.301Z,28.13
2019-04-04T14:15:02.080Z,39.90
2019-04-04T14:17:32.532Z,32.87
2019-04-04T14:20:03.380Z,29.53
2019-04-04T14:22:34.131Z,32.93
2019-04-04T14:25:05.189Z,31.57
2019-04-04T14:27:35.694Z,30.40
2019-04-04T14:30:07.216Z,33.23
2019-04-04T14:32:37.906Z,30.37
2019-04-04T14:35:08.908Z,28.20
2019-04-04T14:37:39.339Z,30.83
2019-04-04T14:40:09.980Z,30.80
2019-04-04T14:42:41.400Z,29.67
2019-04-04T14:45:12.305Z,30.97
2019-04-04T14:47:42.749Z,31.27
2019-04-04T14:50:13.330Z,30.03
2019-04-04T14:52:43.932Z,32.33
2019-04-04T14:55:14.376Z,29.20
2019-04-04T14:57:44.876Z,29.03
2019-04-04T15:00:16.704Z,29.43
2019-04-04T15:02:49.051Z,29.93
2019-04-04T15:05:19.652Z,29.57
2019-04-04T15:07:50.668Z,29.47
2019-04-04T15:10:21.105Z,32.73
2019-04-04T15:12:52.210Z,34.90
2019-04-04T15:15:22.989Z,38.53
2019-04-04T15:17:53.785Z,39.30
2019-04-04T15:20:24.573Z,41.07
2019-04-04T15:22:55.361Z,34.90
2019-04-04T15:25:26.505Z,30.83
2019-04-04T15:27:57.003Z,33.47
2019-04-04T15:30:28.372Z,32.70
2019-04-04T15:32:58.802Z,27.97
2019-04-04T15:35:29.657Z,31.23
2019-04-04T15:38:00.111Z,28.73
2019-04-04T15:40:30.922Z,28.10
2019-04-04T15:43:01.460Z,30.60
2019-04-04T15:45:31.933Z,31.33
2019-04-04T15:48:02.689Z,28.93
2019-04-04T15:50:33.208Z,28.57
2019-04-04T15:53:03.993Z,30.17
2019-04-04T15:55:34.611Z,31.20
2019-04-04T15:58:05.200Z,33.30
2019-04-04T16:00:35.642Z,32.87
2019-04-04T16:03:06.077Z,28.70
2019-04-04T16:05:38.784Z,33.57
2019-04-04T16:08:10.937Z,30.83
2019-04-04T16:10:41.813Z,29.53
2019-04-04T16:13:12.345Z,38.00
2019-04-04T16:15:43.844Z,34.20
2019-04-04T16:18:14.293Z,30.20
2019-04-04T16:20:46.692Z,31.00
2019-04-04T16:23:17.143Z,30.00
2019-04-04T16:25:47.966Z,33.10
2019-04-04T16:28:18.491Z,31.13
2019-04-04T16:30:49.345Z,33.43
2019-04-04T16:33:19.799Z,31.43
2019-04-04T16:35:50.298Z,28.70
2019-04-04T16:38:22.928Z,32.03
2019-04-04T16:40:53.504Z,31.90
2019-04-04T16:43:24.236Z,30.00
2019-04-04T16:45:55.120Z,32.87
2019-04-04T16:48:25.569Z,31.77
2019-04-04T16:50:56.048Z,31.43
2019-04-04T16:53:26.497Z,34.50
2019-04-04T16:55:57.328Z,33.33
2019-04-04T16:58:28.229Z,29.67
2019-04-04T17:00:59.030Z,36.23
2019-04-04T17:03:30.048Z,36.33
2019-04-04T17:06:01.196Z,36.33
2019-04-04T17:08:31.638Z,39.97
2019-04-04T17:11:02.166Z,38.53
2019-04-04T17:13:33.246Z,38.03
2019-04-04T17:16:04.044Z,37.77
2019-04-04T17:18:34.878Z,38.53
2019-04-04T17:21:05.417Z,39.70
2019-04-04T17:23:35.853Z,36.67
2019-04-04T17:26:06.686Z,39.80
2019-04-04T17:28:37.666Z,41.40
2019-04-04T17:31:08.608Z,41.57
2019-04-04T17:33:40.264Z,40.77
2019-04-04T17:36:10.944Z,38.60
2019-04-04T17:38:41.595Z,40.10
2019-04-04T17:41:12.162Z,39.83
2019-04-04T17:43:43.897Z,40.23
2019-04-04T17:46:14.826Z,37.70
2019-04-04T17:48:45.365Z,43.13
2019-04-04T17:51:15.875Z,38.50
2019-04-04T17:53:46.918Z,40.57
2019-04-04T17:56:18.042Z,42.97
2019-04-04T17:58:48.902Z,42.50
2019-04-04T18:01:19.437Z,40.20
2019-04-04T18:03:50.498Z,40.23
2019-04-04T18:06:21.359Z,44.07
2019-04-04T18:08:52.334Z,43.50
2019-04-04T18:11:22.886Z,41.67
2019-04-04T18:13:54.864Z,39.03
2019-04-04T18:16:27.225Z,44.17
2019-04-04T18:18:57.861Z,34.90
2019-04-04T18:21:28.666Z,44.27
2019-04-04T18:23:59.132Z,40.30
2019-04-04T18:26:31.441Z,40.17
2019-04-04T18:29:02.493Z,48.83
2019-04-04T18:31:32.941Z,43.37
2019-04-04T18:34:04.230Z,41.37
2019-04-04T18:36:41.456Z,40.27
2019-04-04T18:39:12.246Z,48.10
2019-04-04T18:41:42.975Z,43.57
2019-04-04T18:44:13.452Z,47.27
2019-04-04T18:46:44.585Z,47.17
2019-04-04T18:49:15.078Z,46.47
2019-04-04T18:51:45.674Z,47.33
2019-04-04T18:54:16.696Z,46.57
2019-04-04T18:56:47.142Z,49.00
2019-04-04T18:59:17.631Z,49.97
2019-04-04T19:01:48.166Z,49.97
2019-04-04T19:04:18.877Z,49.83
2019-04-04T19:06:52.499Z,53.03
2019-04-04T19:09:23.134Z,48.67
2019-04-04T19:11:53.597Z,47.57
2019-04-04T19:14:24.093Z,49.70
2019-04-04T19:16:56.571Z,53.17
2019-04-04T19:19:27.543Z,51.53
2019-04-04T19:21:58.480Z,59.50
2019-04-04T19:24:29.310Z,52.23
2019-04-04T19:27:00.884Z,52.30
2019-04-04T19:29:31.781Z,57.27
2019-04-04T19:32:02.553Z,59.93
2019-04-04T19:34:32.995Z,60.47
2019-04-04T19:37:04.130Z,58.30
2019-04-04T19:39:36.476Z,57.27
2019-04-04T19:42:08.367Z,60.37
2019-04-04T19:44:38.882Z,61.43
2019-04-04T19:47:09.426Z,66.43
2019-04-04T19:49:39.923Z,72.90
2019-04-04T19:52:10.784Z,69.13
2019-04-04T19:54:41.409Z,67.60
2019-04-04T19:57:16.706Z,76.43
2019-04-04T19:59:47.153Z,76.60
2019-04-04T20:02:20.385Z,78.90
2019-04-04T20:04:50.831Z,82.53
2019-04-04T20:07:21.692Z,79.23
2019-04-04T20:09:52.512Z,81.27
2019-04-04T20:12:23.033Z,77.80
2019-04-04T20:14:53.526Z,90.73
2019-04-04T20:17:24.179Z,81.63
2019-04-04T20:19:54.681Z,78.83
2019-04-04T20:22:25.192Z,81.43
2019-04-04T20:24:57.490Z,80.87
2019-04-04T20:27:28.351Z,83.43
2019-04-04T20:29:58.875Z,83.97
2019-04-04T20:32:30.932Z,84.03
2019-04-04T20:35:02.445Z,90.90
2019-04-04T20:37:33.296Z,88.03
2019-04-04T20:40:05.332Z,88.13
2019-04-04T20:42:35.848Z,88.53
2019-04-04T20:45:07.062Z,93.50
2019-04-04T20:47:38.066Z,94.23
2019-04-04T20:50:08.810Z,94.60
2019-04-04T20:52:40.427Z,92.13
2019-04-04T20:55:12.093Z,89.90
2019-04-04T20:57:42.620Z,88.60
2019-04-04T21:00:14.506Z,89.73
2019-04-04T21:02:45.017Z,93.43
2019-04-04T21:05:15.542Z,88.20
2019-04-04T21:07:46.794Z,91.50
2019-04-04T21:10:17.813Z,86.73
2019-04-04T21:12:49.103Z,83.50
2019-04-04T21:15:20.390Z,93.30
2019-04-04T21:17:50.853Z,81.03
2019-04-04T21:20:21.396Z,85.77
2019-04-04T21:22:53.692Z,90.90
2019-04-04T21:25:25.233Z,89.40
2019-04-04T21:27:55.891Z,87.90
2019-04-04T21:30:26.379Z,82.97
2019-04-04T21:32:57.293Z,87.10
2019-04-04T21:35:28.235Z,80.67
2019-04-04T21:37:59.106Z,88.33
2019-04-04T21:40:29.646Z,82.67
2019-04-04T21:43:00.179Z,86.70
2019-04-04T21:45:30.682Z,93.90
2019-04-04T21:48:02.021Z,78.50
2019-04-04T21:50:33.235Z,82.97
2019-04-04T21:53:03.773Z,77.67
2019-04-04T21:55:34.209Z,84.83
2019-04-04T21:58:05.345Z,86.40
2019-04-04T22:00:41.900Z,93.23
2019-04-04T22:03:12.781Z,83.50
2019-04-04T22:05:43.216Z,83.30
2019-04-04T22:08:13.706Z,81.37
2019-04-04T22:10:44.217Z,83.67
2019-04-04T22:13:14.657Z,80.43
2019-04-04T22:15:45.792Z,80.37
2019-04-04T22:18:16.227Z,84.50
2019-04-04T22:20:46.980Z,86.27
2019-04-04T22:23:17.454Z,88.27
2019-04-04T22:25:49.355Z,82.00
2019-04-04T22:28:20.295Z,90.97
2019-04-04T22:30:52.493Z,86.57
2019-04-04T22:33:22.929Z,84.37
2019-04-04T22:35:53.763Z,87.53
2019-04-04T22:38:24.266Z,89.50
2019-04-04T22:40:54.700Z,90.63
2019-04-04T22:43:25.136Z,93.00
2019-04-04T22:45:55.610Z,95.53
2019-04-04T22:48:26.411Z,95.00
2019-04-04T22:50:56.914Z,99.13
2019-04-04T22:53:27.447Z,91.03
2019-04-04T22:55:57.879Z,106.03
2019-04-04T22:58:29.048Z,97.50
2019-04-04T23:01:00.466Z,102.13
2019-04-04T23:03:30.906Z,103.23
2019-04-04T23:06:01.990Z,121.63
2019-04-04T23:08:32.475Z,109.20
2019-04-04T23:11:02.912Z,113.17
2019-04-04T23:13:33.702Z,106.87
2019-04-04T23:16:04.614Z,105.57
2019-04-04T23:18:35.366Z,113.70
2019-04-04T23:21:05.821Z,115.57
2019-04-04T23:23:36.328Z,109.77
2019-04-04T23:26:06.770Z,111.00
2019-04-04T23:28:37.231Z,105.40
2019-04-04T23:31:07.738Z,118.73
2019-04-04T23:33:38.178Z,114.40
2019-04-04T23:36:08.668Z,112.73
2019-04-04T23:38:39.101Z,118.57
2019-04-04T23:41:09.541Z,113.17
2019-04-04T23:43:40.039Z,114.10
2019-04-04T23:46:10.809Z,107.20
2019-04-04T23:48:41.647Z,117.33
2019-04-04T23:51:12.467Z,116.33
2019-04-04T23:53:42.903Z,114.03
2019-04-04T23:56:13.391Z,115.43
2019-04-04T23:58:43.875Z,116.33
